sensor_id;sensor_type;location;lat;lon;timestamp;temperature;humidity
24148;DHT22;12309;51.450;-2.624;2023-08-06T00:00:21;13.30;99.90
24148;DHT22;12309;51.450;-2.624;2023-08-06T00:02:47;13.30;99.90
24148;DHT22;12309;51.450;-2.624;2023-08-06T00:05:13;13.40;99.90
24148;DHT22;12309;51.450;-2.624;2023-08-06T00:07:39;13.30;99.90
24148;DHT22;12309;51.450;-2.624;2023-08-06T00:10:05;13.30;99.90
24148;DHT22;12309;51.450;-2.624;2023-08-06T00:12:30;13.30;99.90
24148;DHT22;12309;51.450;-2.624;2023-08-06T00:14:56;13.30;99.90
24148;DHT22;12309;51.450;-2.624;2023-08-06T00:19:47;13.20;99.90
24148;DHT22;12309;51.450;-2.624;2023-08-06T00:22:13;13.10;99.90
24148;DHT22;12309;51.450;-2.624;2023-08-06T00:24:39;13.00;99.90
24148;DHT22;12309;51.450;-2.624;2023-08-06T00:27:04;13.00;99.90
24148;DHT22;12309;51.450;-2.624;2023-08-06T00:29:30;12.90;99.90
24148;DHT22;12309;51.450;-2.624;2023-08-06T00:31:56;12.90;99.90
24148;DHT22;12309;51.450;-2.624;2023-08-06T00:34:21;12.80;99.90
24148;DHT22;12309;51.450;-2.624;2023-08-06T00:36:47;12.80;99.90
24148;DHT22;12309;51.450;-2.624;2023-08-06T00:39:13;12.90;99.90
24148;DHT22;12309;51.450;-2.624;2023-08-06T00:44:05;12.80;99.90
24148;DHT22;12309;51.450;-2.624;2023-08-06T00:46:32;12.80;99.90
24148;DHT22;12309;51.450;-2.624;2023-08-06T00:48:59;12.80;99.90
24148;DHT22;12309;51.450;-2.624;2023-08-06T00:51:25;12.70;99.90
24148;DHT22;12309;51.450;-2.624;2023-08-06T00:53:52;12.70;99.90
24148;DHT22;12309;51.450;-2.624;2023-08-06T00:56:19;12.70;99.90
24148;DHT22;12309;51.450;-2.624;2023-08-06T00:58:45;12.70;99.90
24148;DHT22;12309;51.450;-2.624;2023-08-06T01:01:11;12.60;99.90
24148;DHT22;12309;51.450;-2.624;2023-08-06T01:03:37;12.60;99.90
24148;DHT22;12309;51.450;-2.624;2023-08-06T01:06:03;12.60;99.90
24148;DHT22;12309;51.450;-2.624;2023-08-06T01:09:01;12.60;99.90
24148;DHT22;12309;51.450;-2.624;2023-08-06T01:17:32;12.60;99.90
24148;DHT22;12309;51.450;-2.624;2023-08-06T01:19:58;12.50;99.90
24148;DHT22;12309;51.450;-2.624;2023-08-06T01:22:23;12.50;99.90
24148;DHT22;12309;51.450;-2.624;2023-08-06T01:24:50;12.50;99.90
24148;DHT22;12309;51.450;-2.624;2023-08-06T01:27:48;12.40;99.90
24148;DHT22;12309;51.450;-2.624;2023-08-06T01:30:27;12.40;99.90
24148;DHT22;12309;51.450;-2.624;2023-08-06T01:33:00;12.40;99.90
24148;DHT22;12309;51.450;-2.624;2023-08-06T01:35:29;12.40;99.90
24148;DHT22;12309;51.450;-2.624;2023-08-06T01:37:55;12.30;99.90
24148;DHT22;12309;51.450;-2.624;2023-08-06T01:40:22;12.40;99.90
24148;DHT22;12309;51.450;-2.624;2023-08-06T01:42:47;12.30;99.90
24148;DHT22;12309;51.450;-2.624;2023-08-06T01:45:13;12.40;99.90
24148;DHT22;12309;51.450;-2.624;2023-08-06T01:47:39;12.30;99.90
24148;DHT22;12309;51.450;-2.624;2023-08-06T01:50:05;12.30;99.90
24148;DHT22;12309;51.450;-2.624;2023-08-06T01:52:30;12.20;99.90
24148;DHT22;12309;51.450;-2.624;2023-08-06T01:54:56;12.20;99.90
24148;DHT22;12309;51.450;-2.624;2023-08-06T01:57:22;12.20;99.90
24148;DHT22;12309;51.450;-2.624;2023-08-06T01:59:47;12.10;99.90
24148;DHT22;12309;51.450;-2.624;2023-08-06T02:02:13;12.20;99.90
24148;DHT22;12309;51.450;-2.624;2023-08-06T02:04:38;12.20;99.90
24148;DHT22;12309;51.450;-2.624;2023-08-06T02:07:04;12.20;99.90
24148;DHT22;12309;51.450;-2.624;2023-08-06T02:09:30;12.20;99.90
24148;DHT22;12309;51.450;-2.624;2023-08-06T02:11:56;12.20;99.90
24148;DHT22;12309;51.450;-2.624;2023-08-06T02:14:21;12.20;99.90
24148;DHT22;12309;51.450;-2.624;2023-08-06T02:16:47;12.10;99.90
24148;DHT22;12309;51.450;-2.624;2023-08-06T02:19:12;12.20;99.90
24148;DHT22;12309;51.450;-2.624;2023-08-06T02:21:38;12.10;99.90
24148;DHT22;12309;51.450;-2.624;2023-08-06T02:24:04;12.10;99.90
24148;DHT22;12309;51.450;-2.624;2023-08-06T02:26:29;12.10;99.90
24148;DHT22;12309;51.450;-2.624;2023-08-06T02:31:21;12.10;99.90
24148;DHT22;12309;51.450;-2.624;2023-08-06T02:33:46;12.10;99.90
24148;DHT22;12309;51.450;-2.624;2023-08-06T02:36:12;12.10;99.90
24148;DHT22;12309;51.450;-2.624;2023-08-06T02:38:38;12.10;99.90
24148;DHT22;12309;51.450;-2.624;2023-08-06T02:41:04;12.10;99.90
24148;DHT22;12309;51.450;-2.624;2023-08-06T02:43:30;12.10;99.90
24148;DHT22;12309;51.450;-2.624;2023-08-06T02:45:59;12.10;99.90
24148;DHT22;12309;51.450;-2.624;2023-08-06T02:48:25;12.10;99.90
24148;DHT22;12309;51.450;-2.624;2023-08-06T02:50:51;12.10;99.90
24148;DHT22;12309;51.450;-2.624;2023-08-06T02:53:16;12.10;99.90
24148;DHT22;12309;51.450;-2.624;2023-08-06T02:55:46;12.10;99.90
24148;DHT22;12309;51.450;-2.624;2023-08-06T02:58:15;12.40;99.90
24148;DHT22;12309;51.450;-2.624;2023-08-06T03:00:42;12.10;99.90
24148;DHT22;12309;51.450;-2.624;2023-08-06T03:03:08;12.20;99.90
24148;DHT22;12309;51.450;-2.624;2023-08-06T03:05:34;12.30;99.90
24148;DHT22;12309;51.450;-2.624;2023-08-06T03:08:00;12.10;99.90
24148;DHT22;12309;51.450;-2.624;2023-08-06T03:10:25;12.10;99.90
24148;DHT22;12309;51.450;-2.624;2023-08-06T03:12:51;12.10;99.90
24148;DHT22;12309;51.450;-2.624;2023-08-06T03:15:16;12.00;99.90
24148;DHT22;12309;51.450;-2.624;2023-08-06T03:17:42;12.00;99.90
24148;DHT22;12309;51.450;-2.624;2023-08-06T03:20:09;12.00;99.90
24148;DHT22;12309;51.450;-2.624;2023-08-06T03:22:35;11.90;99.90
24148;DHT22;12309;51.450;-2.624;2023-08-06T03:27:26;11.90;99.90
24148;DHT22;12309;51.450;-2.624;2023-08-06T03:29:52;11.80;99.90
24148;DHT22;12309;51.450;-2.624;2023-08-06T03:32:18;11.70;99.90
24148;DHT22;12309;51.450;-2.624;2023-08-06T03:34:43;11.60;99.90
24148;DHT22;12309;51.450;-2.624;2023-08-06T03:37:09;11.80;99.90
24148;DHT22;12309;51.450;-2.624;2023-08-06T03:42:01;11.80;99.90
24148;DHT22;12309;51.450;-2.624;2023-08-06T03:44:26;11.60;99.90
24148;DHT22;12309;51.450;-2.624;2023-08-06T03:46:53;11.80;99.90
24148;DHT22;12309;51.450;-2.624;2023-08-06T03:49:19;11.80;99.90
24148;DHT22;12309;51.450;-2.624;2023-08-06T03:51:44;11.70;99.90
24148;DHT22;12309;51.450;-2.624;2023-08-06T03:54:10;11.70;99.90
24148;DHT22;12309;51.450;-2.624;2023-08-06T03:56:36;11.50;99.90
24148;DHT22;12309;51.450;-2.624;2023-08-06T04:01:27;11.70;99.90
24148;DHT22;12309;51.450;-2.624;2023-08-06T04:03:53;11.70;99.90
24148;DHT22;12309;51.450;-2.624;2023-08-06T04:06:18;11.80;99.90
24148;DHT22;12309;51.450;-2.624;2023-08-06T04:08:44;11.60;99.90
24148;DHT22;12309;51.450;-2.624;2023-08-06T04:13:36;11.60;99.90
24148;DHT22;12309;51.450;-2.624;2023-08-06T04:16:04;11.70;99.90
24148;DHT22;12309;51.450;-2.624;2023-08-06T04:18:30;11.60;99.90
24148;DHT22;12309;51.450;-2.624;2023-08-06T04:20:56;11.60;99.90
24148;DHT22;12309;51.450;-2.624;2023-08-06T04:23:23;11.50;99.90
24148;DHT22;12309;51.450;-2.624;2023-08-06T04:25:49;11.60;99.90
24148;DHT22;12309;51.450;-2.624;2023-08-06T04:28:14;11.50;99.90
24148;DHT22;12309;51.450;-2.624;2023-08-06T04:30:40;11.40;99.90
24148;DHT22;12309;51.450;-2.624;2023-08-06T04:33:05;11.50;99.90
24148;DHT22;12309;51.450;-2.624;2023-08-06T04:35:31;11.40;99.90
24148;DHT22;12309;51.450;-2.624;2023-08-06T04:40:22;11.50;99.90
24148;DHT22;12309;51.450;-2.624;2023-08-06T04:42:48;11.60;99.90
24148;DHT22;12309;51.450;-2.624;2023-08-06T04:45:14;11.60;99.90
24148;DHT22;12309;51.450;-2.624;2023-08-06T04:47:39;11.50;99.90
24148;DHT22;12309;51.450;-2.624;2023-08-06T04:50:05;11.50;99.90
24148;DHT22;12309;51.450;-2.624;2023-08-06T04:52:31;11.50;99.90
24148;DHT22;12309;51.450;-2.624;2023-08-06T04:54:58;11.40;99.90
24148;DHT22;12309;51.450;-2.624;2023-08-06T04:57:23;11.50;99.90
24148;DHT22;12309;51.450;-2.624;2023-08-06T04:59:49;11.50;99.90
24148;DHT22;12309;51.450;-2.624;2023-08-06T05:02:15;11.50;99.90
24148;DHT22;12309;51.450;-2.624;2023-08-06T05:04:40;11.40;99.90
24148;DHT22;12309;51.450;-2.624;2023-08-06T05:07:06;11.20;99.90
24148;DHT22;12309;51.450;-2.624;2023-08-06T05:12:00;11.50;99.90
24148;DHT22;12309;51.450;-2.624;2023-08-06T05:14:26;11.80;99.90
24148;DHT22;12309;51.450;-2.624;2023-08-06T05:16:51;11.60;99.90
24148;DHT22;12309;51.450;-2.624;2023-08-06T05:19:17;11.60;99.90
24148;DHT22;12309;51.450;-2.624;2023-08-06T05:21:42;11.70;99.90
24148;DHT22;12309;51.450;-2.624;2023-08-06T05:24:08;11.80;99.90
24148;DHT22;12309;51.450;-2.624;2023-08-06T05:26:33;11.90;99.90
24148;DHT22;12309;51.450;-2.624;2023-08-06T05:29:00;11.80;99.90
24148;DHT22;12309;51.450;-2.624;2023-08-06T05:31:26;12.10;99.90
24148;DHT22;12309;51.450;-2.624;2023-08-06T05:33:51;12.00;99.90
24148;DHT22;12309;51.450;-2.624;2023-08-06T05:36:17;11.80;99.90
24148;DHT22;12309;51.450;-2.624;2023-08-06T05:38:43;11.90;99.90
24148;DHT22;12309;51.450;-2.624;2023-08-06T05:41:08;11.90;99.90
24148;DHT22;12309;51.450;-2.624;2023-08-06T05:43:34;12.70;99.90
24148;DHT22;12309;51.450;-2.624;2023-08-06T05:46:00;12.30;99.90
24148;DHT22;12309;51.450;-2.624;2023-08-06T05:48:25;12.40;99.90
24148;DHT22;12309;51.450;-2.624;2023-08-06T05:50:53;12.60;99.90
24148;DHT22;12309;51.450;-2.624;2023-08-06T05:53:18;12.70;99.90
24148;DHT22;12309;51.450;-2.624;2023-08-06T05:55:45;12.90;99.90
24148;DHT22;12309;51.450;-2.624;2023-08-06T05:58:10;13.00;99.90
24148;DHT22;12309;51.450;-2.624;2023-08-06T06:00:36;13.10;99.90
24148;DHT22;12309;51.450;-2.624;2023-08-06T06:03:01;13.00;99.90
24148;DHT22;12309;51.450;-2.624;2023-08-06T06:05:28;13.10;99.90
24148;DHT22;12309;51.450;-2.624;2023-08-06T06:07:54;13.40;99.90
24148;DHT22;12309;51.450;-2.624;2023-08-06T06:10:19;13.40;99.90
24148;DHT22;12309;51.450;-2.624;2023-08-06T06:12:45;13.60;99.90
24148;DHT22;12309;51.450;-2.624;2023-08-06T06:15:10;13.70;99.90
24148;DHT22;12309;51.450;-2.624;2023-08-06T06:17:36;13.80;99.90
24148;DHT22;12309;51.450;-2.624;2023-08-06T06:20:02;13.80;99.90
24148;DHT22;12309;51.450;-2.624;2023-08-06T06:22:29;13.90;99.90
24148;DHT22;12309;51.450;-2.624;2023-08-06T06:24:55;14.00;99.90
24148;DHT22;12309;51.450;-2.624;2023-08-06T06:27:21;14.00;99.90
24148;DHT22;12309;51.450;-2.624;2023-08-06T06:29:46;13.70;99.90
24148;DHT22;12309;51.450;-2.624;2023-08-06T06:32:12;14.30;99.90
24148;DHT22;12309;51.450;-2.624;2023-08-06T06:34:37;14.40;99.90
24148;DHT22;12309;51.450;-2.624;2023-08-06T06:37:03;14.80;99.90
24148;DHT22;12309;51.450;-2.624;2023-08-06T06:39:29;14.70;99.90
24148;DHT22;12309;51.450;-2.624;2023-08-06T06:41:54;14.70;99.90
24148;DHT22;12309;51.450;-2.624;2023-08-06T06:49:12;15.20;99.90
24148;DHT22;12309;51.450;-2.624;2023-08-06T06:51:38;15.30;99.90
24148;DHT22;12309;51.450;-2.624;2023-08-06T06:54:03;15.30;99.90
24148;DHT22;12309;51.450;-2.624;2023-08-06T06:56:29;15.30;99.90
24148;DHT22;12309;51.450;-2.624;2023-08-06T06:58:55;15.30;99.90
24148;DHT22;12309;51.450;-2.624;2023-08-06T07:03:46;15.40;99.90
24148;DHT22;12309;51.450;-2.624;2023-08-06T07:06:12;15.30;99.90
24148;DHT22;12309;51.450;-2.624;2023-08-06T07:08:38;14.50;99.90
24148;DHT22;12309;51.450;-2.624;2023-08-06T07:11:05;15.10;99.90
24148;DHT22;12309;51.450;-2.624;2023-08-06T07:13:31;15.20;99.90
24148;DHT22;12309;51.450;-2.624;2023-08-06T07:15:57;15.20;99.90
24148;DHT22;12309;51.450;-2.624;2023-08-06T07:18:23;15.40;99.90
24148;DHT22;12309;51.450;-2.624;2023-08-06T07:20:53;15.40;99.90
24148;DHT22;12309;51.450;-2.624;2023-08-06T07:23:24;15.50;99.90
24148;DHT22;12309;51.450;-2.624;2023-08-06T07:25:50;15.50;99.90
24148;DHT22;12309;51.450;-2.624;2023-08-06T07:28:16;15.60;99.90
24148;DHT22;12309;51.450;-2.624;2023-08-06T07:30:43;15.70;99.90
24148;DHT22;12309;51.450;-2.624;2023-08-06T07:33:08;15.80;99.90
24148;DHT22;12309;51.450;-2.624;2023-08-06T07:35:34;15.90;99.90
24148;DHT22;12309;51.450;-2.624;2023-08-06T07:38:00;16.00;99.90
24148;DHT22;12309;51.450;-2.624;2023-08-06T07:40:26;18.10;99.90
24148;DHT22;12309;51.450;-2.624;2023-08-06T07:45:18;16.30;99.90
24148;DHT22;12309;51.450;-2.624;2023-08-06T07:47:43;16.20;99.90
24148;DHT22;12309;51.450;-2.624;2023-08-06T07:50:09;16.40;99.90
24148;DHT22;12309;51.450;-2.624;2023-08-06T07:52:35;16.40;99.90
24148;DHT22;12309;51.450;-2.624;2023-08-06T07:55:01;16.20;99.90
24148;DHT22;12309;51.450;-2.624;2023-08-06T07:57:31;16.30;99.90
24148;DHT22;12309;51.450;-2.624;2023-08-06T07:59:56;16.50;99.90
24148;DHT22;12309;51.450;-2.624;2023-08-06T08:02:22;16.60;99.90
24148;DHT22;12309;51.450;-2.624;2023-08-06T08:04:48;16.70;99.90
24148;DHT22;12309;51.450;-2.624;2023-08-06T08:07:14;16.80;99.90
24148;DHT22;12309;51.450;-2.624;2023-08-06T08:12:05;16.80;99.90
24148;DHT22;12309;51.450;-2.624;2023-08-06T08:14:31;16.80;99.90
24148;DHT22;12309;51.450;-2.624;2023-08-06T08:17:04;16.80;99.90
24148;DHT22;12309;51.450;-2.624;2023-08-06T08:19:31;16.60;99.90
24148;DHT22;12309;51.450;-2.624;2023-08-06T08:21:57;16.70;99.90
24148;DHT22;12309;51.450;-2.624;2023-08-06T08:24:23;16.90;99.90
24148;DHT22;12309;51.450;-2.624;2023-08-06T08:26:52;16.80;99.90
24148;DHT22;12309;51.450;-2.624;2023-08-06T08:29:22;17.00;99.90
24148;DHT22;12309;51.450;-2.624;2023-08-06T08:31:48;17.30;99.90
24148;DHT22;12309;51.450;-2.624;2023-08-06T08:34:17;17.20;99.90
24148;DHT22;12309;51.450;-2.624;2023-08-06T08:36:43;18.00;99.90
24148;DHT22;12309;51.450;-2.624;2023-08-06T08:39:09;17.80;99.90
24148;DHT22;12309;51.450;-2.624;2023-08-06T08:41:37;17.80;99.90
24148;DHT22;12309;51.450;-2.624;2023-08-06T08:44:06;17.80;99.90
24148;DHT22;12309;51.450;-2.624;2023-08-06T08:46:33;17.90;99.90
24148;DHT22;12309;51.450;-2.624;2023-08-06T08:49:01;18.00;99.90
24148;DHT22;12309;51.450;-2.624;2023-08-06T08:51:28;18.10;99.90
24148;DHT22;12309;51.450;-2.624;2023-08-06T08:53:55;18.30;99.90
24148;DHT22;12309;51.450;-2.624;2023-08-06T08:56:24;18.00;99.90
24148;DHT22;12309;51.450;-2.624;2023-08-06T08:58:50;18.20;99.90
24148;DHT22;12309;51.450;-2.624;2023-08-06T09:01:21;18.50;99.90
24148;DHT22;12309;51.450;-2.624;2023-08-06T09:03:48;18.60;99.90
24148;DHT22;12309;51.450;-2.624;2023-08-06T09:06:14;18.80;99.90
24148;DHT22;12309;51.450;-2.624;2023-08-06T09:09:06;19.10;99.90
24148;DHT22;12309;51.450;-2.624;2023-08-06T09:11:40;19.00;99.90
24148;DHT22;12309;51.450;-2.624;2023-08-06T09:14:07;18.90;99.90
24148;DHT22;12309;51.450;-2.624;2023-08-06T09:16:37;18.50;99.90
24148;DHT22;12309;51.450;-2.624;2023-08-06T09:19:09;18.10;99.90
24148;DHT22;12309;51.450;-2.624;2023-08-06T09:21:39;17.70;99.90
24148;DHT22;12309;51.450;-2.624;2023-08-06T09:24:12;17.50;99.90
24148;DHT22;12309;51.450;-2.624;2023-08-06T09:26:42;17.30;99.90
24148;DHT22;12309;51.450;-2.624;2023-08-06T09:29:08;16.90;99.90
24148;DHT22;12309;51.450;-2.624;2023-08-06T09:31:50;16.70;99.90
24148;DHT22;12309;51.450;-2.624;2023-08-06T09:34:22;16.80;99.90
24148;DHT22;12309;51.450;-2.624;2023-08-06T09:36:52;17.20;99.90
24148;DHT22;12309;51.450;-2.624;2023-08-06T09:39:20;17.40;99.90
24148;DHT22;12309;51.450;-2.624;2023-08-06T09:41:46;17.60;99.90
24148;DHT22;12309;51.450;-2.624;2023-08-06T09:44:19;18.60;99.90
24148;DHT22;12309;51.450;-2.624;2023-08-06T09:46:55;19.80;99.90
24148;DHT22;12309;51.450;-2.624;2023-08-06T09:51:57;19.80;99.90
24148;DHT22;12309;51.450;-2.624;2023-08-06T09:54:25;19.40;99.90
24148;DHT22;12309;51.450;-2.624;2023-08-06T09:56:55;19.00;99.90
24148;DHT22;12309;51.450;-2.624;2023-08-06T09:59:23;19.20;99.90
24148;DHT22;12309;51.450;-2.624;2023-08-06T10:01:49;19.30;99.90
24148;DHT22;12309;51.450;-2.624;2023-08-06T10:04:15;19.90;99.90
24148;DHT22;12309;51.450;-2.624;2023-08-06T10:06:43;20.60;99.90
24148;DHT22;12309;51.450;-2.624;2023-08-06T10:09:11;21.00;99.90
24148;DHT22;12309;51.450;-2.624;2023-08-06T10:11:37;21.40;99.90
24148;DHT22;12309;51.450;-2.624;2023-08-06T10:14:14;21.50;99.90
24148;DHT22;12309;51.450;-2.624;2023-08-06T10:16:42;22.00;99.90
24148;DHT22;12309;51.450;-2.624;2023-08-06T10:19:09;23.00;99.90
24148;DHT22;12309;51.450;-2.624;2023-08-06T10:21:35;22.30;99.90
24148;DHT22;12309;51.450;-2.624;2023-08-06T10:24:07;22.00;99.90
24148;DHT22;12309;51.450;-2.624;2023-08-06T10:26:35;21.60;99.90
24148;DHT22;12309;51.450;-2.624;2023-08-06T10:29:00;21.90;99.90
24148;DHT22;12309;51.450;-2.624;2023-08-06T10:31:54;22.10;99.90
24148;DHT22;12309;51.450;-2.624;2023-08-06T10:34:23;22.30;99.90
24148;DHT22;12309;51.450;-2.624;2023-08-06T10:36:48;22.40;99.90
24148;DHT22;12309;51.450;-2.624;2023-08-06T10:39:14;21.60;99.90
24148;DHT22;12309;51.450;-2.624;2023-08-06T10:41:42;21.10;99.90
24148;DHT22;12309;51.450;-2.624;2023-08-06T10:44:10;20.60;99.90
24148;DHT22;12309;51.450;-2.624;2023-08-06T10:46:37;19.80;99.90
24148;DHT22;12309;51.450;-2.624;2023-08-06T10:49:03;19.60;99.90
24148;DHT22;12309;51.450;-2.624;2023-08-06T10:51:30;19.90;99.90
24148;DHT22;12309;51.450;-2.624;2023-08-06T10:53:56;20.40;99.90
24148;DHT22;12309;51.450;-2.624;2023-08-06T10:56:24;21.00;99.90
24148;DHT22;12309;51.450;-2.624;2023-08-06T10:58:56;21.60;99.90
24148;DHT22;12309;51.450;-2.624;2023-08-06T11:01:23;21.70;99.90
24148;DHT22;12309;51.450;-2.624;2023-08-06T11:03:49;22.70;99.90
24148;DHT22;12309;51.450;-2.624;2023-08-06T11:06:22;22.30;99.90
24148;DHT22;12309;51.450;-2.624;2023-08-06T11:08:50;21.20;99.90
24148;DHT22;12309;51.450;-2.624;2023-08-06T11:11:17;20.60;99.90
24148;DHT22;12309;51.450;-2.624;2023-08-06T11:13:48;19.20;99.90
24148;DHT22;12309;51.450;-2.624;2023-08-06T11:16:17;19.30;99.90
24148;DHT22;12309;51.450;-2.624;2023-08-06T11:18:44;19.30;99.90
24148;DHT22;12309;51.450;-2.624;2023-08-06T11:21:10;19.10;99.90
24148;DHT22;12309;51.450;-2.624;2023-08-06T11:23:40;19.70;99.90
24148;DHT22;12309;51.450;-2.624;2023-08-06T11:26:07;19.70;99.90
24148;DHT22;12309;51.450;-2.624;2023-08-06T11:28:33;19.70;99.90
24148;DHT22;12309;51.450;-2.624;2023-08-06T11:30:58;19.80;99.90
24148;DHT22;12309;51.450;-2.624;2023-08-06T11:33:28;19.90;99.90
24148;DHT22;12309;51.450;-2.624;2023-08-06T11:35:58;21.20;99.90
24148;DHT22;12309;51.450;-2.624;2023-08-06T11:38:28;22.70;99.90
24148;DHT22;12309;51.450;-2.624;2023-08-06T11:40:54;23.70;99.90
24148;DHT22;12309;51.450;-2.624;2023-08-06T11:43:21;25.00;99.90
24148;DHT22;12309;51.450;-2.624;2023-08-06T11:45:50;25.00;99.90
24148;DHT22;12309;51.450;-2.624;2023-08-06T11:50:45;23.90;99.90
24148;DHT22;12309;51.450;-2.624;2023-08-06T11:53:13;22.60;99.90
24148;DHT22;12309;51.450;-2.624;2023-08-06T11:55:39;21.90;99.90
24148;DHT22;12309;51.450;-2.624;2023-08-06T11:58:05;20.30;99.90
24148;DHT22;12309;51.450;-2.624;2023-08-06T12:00:31;19.90;99.90
24148;DHT22;12309;51.450;-2.624;2023-08-06T12:02:57;19.90;99.90
24148;DHT22;12309;51.450;-2.624;2023-08-06T12:05:28;19.60;99.90
24148;DHT22;12309;51.450;-2.624;2023-08-06T12:07:58;19.60;99.90
24148;DHT22;12309;51.450;-2.624;2023-08-06T12:10:25;19.90;99.90
24148;DHT22;12309;51.450;-2.624;2023-08-06T12:12:51;21.30;99.90
24148;DHT22;12309;51.450;-2.624;2023-08-06T12:15:17;23.00;99.90
24148;DHT22;12309;51.450;-2.624;2023-08-06T12:17:43;23.80;99.90
24148;DHT22;12309;51.450;-2.624;2023-08-06T12:20:09;24.80;99.90
24148;DHT22;12309;51.450;-2.624;2023-08-06T12:22:36;24.80;99.90
24148;DHT22;12309;51.450;-2.624;2023-08-06T12:25:03;22.90;99.90
24148;DHT22;12309;51.450;-2.624;2023-08-06T12:27:32;22.90;99.90
24148;DHT22;12309;51.450;-2.624;2023-08-06T12:29:57;22.00;99.90
24148;DHT22;12309;51.450;-2.624;2023-08-06T12:32:23;21.60;99.90
24148;DHT22;12309;51.450;-2.624;2023-08-06T12:34:48;21.80;99.90
24148;DHT22;12309;51.450;-2.624;2023-08-06T12:37:14;22.00;99.90
24148;DHT22;12309;51.450;-2.624;2023-08-06T12:39:40;23.30;99.90
24148;DHT22;12309;51.450;-2.624;2023-08-06T12:42:06;24.30;99.90
24148;DHT22;12309;51.450;-2.624;2023-08-06T12:44:32;24.30;99.90
24148;DHT22;12309;51.450;-2.624;2023-08-06T12:46:58;23.70;99.90
24148;DHT22;12309;51.450;-2.624;2023-08-06T12:49:25;23.00;99.90
24148;DHT22;12309;51.450;-2.624;2023-08-06T12:51:52;21.40;99.90
24148;DHT22;12309;51.450;-2.624;2023-08-06T12:54:18;20.20;99.90
24148;DHT22;12309;51.450;-2.624;2023-08-06T12:56:44;21.20;99.90
24148;DHT22;12309;51.450;-2.624;2023-08-06T13:01:39;22.30;99.90
24148;DHT22;12309;51.450;-2.624;2023-08-06T13:04:05;22.90;99.90
24148;DHT22;12309;51.450;-2.624;2023-08-06T13:06:31;22.60;99.90
24148;DHT22;12309;51.450;-2.624;2023-08-06T13:09:01;22.30;99.90
24148;DHT22;12309;51.450;-2.624;2023-08-06T13:11:27;21.50;99.90
24148;DHT22;12309;51.450;-2.624;2023-08-06T13:13:53;21.10;99.90
24148;DHT22;12309;51.450;-2.624;2023-08-06T13:16:18;20.90;99.90
24148;DHT22;12309;51.450;-2.624;2023-08-06T13:18:44;20.90;99.90
24148;DHT22;12309;51.450;-2.624;2023-08-06T13:21:09;21.00;99.90
24148;DHT22;12309;51.450;-2.624;2023-08-06T13:23:35;21.80;99.90
24148;DHT22;12309;51.450;-2.624;2023-08-06T13:26:00;21.80;99.90
24148;DHT22;12309;51.450;-2.624;2023-08-06T13:28:26;22.00;99.90
24148;DHT22;12309;51.450;-2.624;2023-08-06T13:30:52;23.40;99.90
24148;DHT22;12309;51.450;-2.624;2023-08-06T13:33:17;24.70;99.90
24148;DHT22;12309;51.450;-2.624;2023-08-06T13:35:43;24.40;99.90
24148;DHT22;12309;51.450;-2.624;2023-08-06T13:38:09;23.70;99.90
24148;DHT22;12309;51.450;-2.624;2023-08-06T13:40:35;23.10;99.90
24148;DHT22;12309;51.450;-2.624;2023-08-06T13:43:01;20.50;99.90
24148;DHT22;12309;51.450;-2.624;2023-08-06T13:45:26;19.90;99.90
24148;DHT22;12309;51.450;-2.624;2023-08-06T13:47:52;19.70;99.90
24148;DHT22;12309;51.450;-2.624;2023-08-06T13:50:17;19.50;99.90
24148;DHT22;12309;51.450;-2.624;2023-08-06T13:52:44;19.60;99.90
24148;DHT22;12309;51.450;-2.624;2023-08-06T13:55:10;19.30;99.90
24148;DHT22;12309;51.450;-2.624;2023-08-06T13:57:35;19.50;99.90
24148;DHT22;12309;51.450;-2.624;2023-08-06T14:00:02;20.30;99.90
24148;DHT22;12309;51.450;-2.624;2023-08-06T14:02:28;21.00;99.90
24148;DHT22;12309;51.450;-2.624;2023-08-06T14:04:53;21.00;99.90
24148;DHT22;12309;51.450;-2.624;2023-08-06T14:07:19;21.70;99.90
24148;DHT22;12309;51.450;-2.624;2023-08-06T14:09:45;23.40;99.90
24148;DHT22;12309;51.450;-2.624;2023-08-06T14:12:12;24.50;99.90
24148;DHT22;12309;51.450;-2.624;2023-08-06T14:14:38;25.80;99.90
24148;DHT22;12309;51.450;-2.624;2023-08-06T14:17:04;26.20;99.90
24148;DHT22;12309;51.450;-2.624;2023-08-06T14:19:30;26.40;99.90
24148;DHT22;12309;51.450;-2.624;2023-08-06T14:21:55;26.40;99.90
24148;DHT22;12309;51.450;-2.624;2023-08-06T14:24:21;26.80;99.90
24148;DHT22;12309;51.450;-2.624;2023-08-06T14:26:47;25.80;99.90
24148;DHT22;12309;51.450;-2.624;2023-08-06T14:29:12;24.60;99.90
24148;DHT22;12309;51.450;-2.624;2023-08-06T14:31:39;22.10;99.90
24148;DHT22;12309;51.450;-2.624;2023-08-06T14:34:05;22.10;99.90
24148;DHT22;12309;51.450;-2.624;2023-08-06T14:36:31;22.10;99.90
24148;DHT22;12309;51.450;-2.624;2023-08-06T14:38:56;22.10;99.90
24148;DHT22;12309;51.450;-2.624;2023-08-06T14:41:22;22.00;99.90
24148;DHT22;12309;51.450;-2.624;2023-08-06T14:43:48;22.30;99.90
24148;DHT22;12309;51.450;-2.624;2023-08-06T14:46:13;22.80;99.90
24148;DHT22;12309;51.450;-2.624;2023-08-06T14:48:39;24.00;99.90
24148;DHT22;12309;51.450;-2.624;2023-08-06T14:51:04;24.80;99.90
24148;DHT22;12309;51.450;-2.624;2023-08-06T14:53:30;25.70;99.90
24148;DHT22;12309;51.450;-2.624;2023-08-06T14:55:56;26.20;99.90
24148;DHT22;12309;51.450;-2.624;2023-08-06T14:58:21;25.70;99.90
24148;DHT22;12309;51.450;-2.624;2023-08-06T15:00:47;25.20;99.90
24148;DHT22;12309;51.450;-2.624;2023-08-06T15:03:12;24.30;99.90
24148;DHT22;12309;51.450;-2.624;2023-08-06T15:05:38;23.40;99.90
24148;DHT22;12309;51.450;-2.624;2023-08-06T15:08:04;23.10;99.90
24148;DHT22;12309;51.450;-2.624;2023-08-06T15:10:29;24.30;99.90
24148;DHT22;12309;51.450;-2.624;2023-08-06T15:12:55;25.90;99.90
24148;DHT22;12309;51.450;-2.624;2023-08-06T15:15:21;26.30;18.10
24148;DHT22;12309;51.450;-2.624;2023-08-06T15:17:52;26.20;28.50
24148;DHT22;12309;51.450;-2.624;2023-08-06T15:20:17;26.00;13.10
24148;DHT22;12309;51.450;-2.624;2023-08-06T15:22:43;24.60;42.20
24148;DHT22;12309;51.450;-2.624;2023-08-06T15:25:09;23.90;95.30
24148;DHT22;12309;51.450;-2.624;2023-08-06T15:30:01;22.50;99.90
24148;DHT22;12309;51.450;-2.624;2023-08-06T15:32:27;21.00;99.90
24148;DHT22;12309;51.450;-2.624;2023-08-06T15:34:53;21.60;99.90
24148;DHT22;12309;51.450;-2.624;2023-08-06T15:37:18;21.60;99.90
24148;DHT22;12309;51.450;-2.624;2023-08-06T15:39:44;22.50;1.00
24148;DHT22;12309;51.450;-2.624;2023-08-06T15:42:10;22.60;1.00
24148;DHT22;12309;51.450;-2.624;2023-08-06T15:44:35;22.60;99.90
24148;DHT22;12309;51.450;-2.624;2023-08-06T15:47:01;23.20;99.90
24148;DHT22;12309;51.450;-2.624;2023-08-06T15:49:27;23.10;99.90
24148;DHT22;12309;51.450;-2.624;2023-08-06T15:51:52;23.20;99.90
24148;DHT22;12309;51.450;-2.624;2023-08-06T15:54:18;23.40;99.90
24148;DHT22;12309;51.450;-2.624;2023-08-06T15:56:45;23.50;99.90
24148;DHT22;12309;51.450;-2.624;2023-08-06T15:59:31;23.90;99.90
24148;DHT22;12309;51.450;-2.624;2023-08-06T16:01:57;23.60;99.90